Search for airport 
image banner adimage banner adimage banner ad
image banner ad

5IA3 - Watkins Private

Located in Humeston, United States

ICAO - 5IA3, IATA -

Data provided by Airmate  

General information

Coordinates: N40°50'38" W93°32'34"
Elevation is 1095 feet MSL.
Magnetic variation is 04° East
View others Airports in Iowa

Operational data

Special qualification required
Current time UTC:
Current local time:
Weather at : KCNC - Chariton Muni ( 25 km )
METAR: KCNC 181755Z AUTO 29009KT 10SM FEW030 28/24 A2990 RMK AO2
View NOTAMs / SUP AIP / TFR affecting this airport [VIEW]
Communications frequencies: [VIEW]

Runways:

RWY identifierQFULength (ft)Width (ft)SurfaceLDA (ft)
14187066GRASS
32187066GRASS

Airport contact information

Address: Humeston United States

Satellite view of 5IA3